createdAt,value
2018-05-07T00:00:33.635Z,0.00
2018-05-07T00:01:33.648Z,0.00
2018-05-07T00:02:33.665Z,0.00
2018-05-07T00:03:33.684Z,0.00
2018-05-07T00:04:33.695Z,0.00
2018-05-07T00:05:33.710Z,0.00
2018-05-07T00:06:33.743Z,0.00
2018-05-07T00:07:33.742Z,0.00
2018-05-07T00:08:33.760Z,0.00
2018-05-07T00:09:33.894Z,0.00
2018-05-07T00:10:33.788Z,0.00
2018-05-07T00:11:33.882Z,0.00
2018-05-07T00:12:33.818Z,0.00
2018-05-07T00:13:33.834Z,0.00
2018-05-07T00:14:33.849Z,0.00
2018-05-07T00:15:33.866Z,0.00
2018-05-07T00:16:33.879Z,0.00
2018-05-07T00:17:33.902Z,0.00
2018-05-07T00:18:33.911Z,0.00
2018-05-07T00:19:33.927Z,0.00
2018-05-07T00:20:33.945Z,0.00
2018-05-07T00:21:33.958Z,0.00
2018-05-07T00:22:33.978Z,0.00
2018-05-07T00:23:33.989Z,0.00
2018-05-07T00:24:34.006Z,0.00
2018-05-07T00:25:34.021Z,0.00
2018-05-07T00:26:34.067Z,0.00
2018-05-07T00:27:34.050Z,0.00
2018-05-07T00:28:34.063Z,0.00
2018-05-07T00:29:34.079Z,0.00
2018-05-07T00:30:34.096Z,0.00
2018-05-07T00:31:34.111Z,0.00
2018-05-07T00:32:34.129Z,0.00
2018-05-07T00:33:34.141Z,0.00
2018-05-07T00:34:34.160Z,0.00
2018-05-07T00:35:34.172Z,0.00
2018-05-07T00:36:34.187Z,0.00
2018-05-07T00:37:34.201Z,0.00
2018-05-07T00:38:34.216Z,0.00
2018-05-07T00:39:34.233Z,0.00
2018-05-07T00:40:34.248Z,0.00
2018-05-07T00:41:34.264Z,0.00
2018-05-07T00:42:34.280Z,0.00
2018-05-07T00:43:34.295Z,0.00
2018-05-07T00:44:34.309Z,0.00
2018-05-07T00:45:34.325Z,0.00
2018-05-07T00:46:34.338Z,0.00
2018-05-07T00:47:34.356Z,0.00
2018-05-07T00:48:34.375Z,0.00
2018-05-07T00:49:34.385Z,0.00
2018-05-07T00:50:34.402Z,0.00
2018-05-07T00:51:34.418Z,0.00
2018-05-07T00:52:34.431Z,0.00
2018-05-07T00:53:34.449Z,0.00
2018-05-07T00:54:34.463Z,0.00
2018-05-07T00:55:34.479Z,0.00
2018-05-07T00:56:34.493Z,0.00
2018-05-07T00:57:34.509Z,0.00
2018-05-07T00:58:34.524Z,0.00
2018-05-07T00:59:34.540Z,0.00
2018-05-07T01:00:34.553Z,0.00
2018-05-07T01:01:34.571Z,0.00
2018-05-07T01:02:34.585Z,0.00
2018-05-07T01:03:34.602Z,0.00
2018-05-07T01:04:34.616Z,0.00
2018-05-07T01:05:34.632Z,0.00
2018-05-07T01:06:34.649Z,0.00
2018-05-07T01:07:34.663Z,0.00
2018-05-07T01:08:34.677Z,0.00
2018-05-07T01:09:34.700Z,0.00
2018-05-07T01:10:34.710Z,0.00
2018-05-07T01:11:34.725Z,0.00
2018-05-07T01:12:34.740Z,0.00
2018-05-07T01:13:34.813Z,0.00
2018-05-07T01:14:34.770Z,0.00
2018-05-07T01:15:34.791Z,0.00
2018-05-07T01:16:34.800Z,0.00
2018-05-07T01:17:34.815Z,0.00
2018-05-07T01:18:34.831Z,0.00
2018-05-07T01:19:34.845Z,0.00
2018-05-07T01:20:34.866Z,0.00
2018-05-07T01:21:34.876Z,0.00
2018-05-07T01:22:34.899Z,0.00
2018-05-07T01:23:34.908Z,0.00
2018-05-07T01:24:34.925Z,0.00
2018-05-07T01:25:34.937Z,0.00
2018-05-07T01:26:34.954Z,0.00
2018-05-07T01:27:34.970Z,0.00
2018-05-07T01:28:34.986Z,0.00
2018-05-07T01:29:34.999Z,0.00
2018-05-07T01:30:35.017Z,0.00
2018-05-07T01:31:35.036Z,0.00
2018-05-07T01:32:35.043Z,0.00
2018-05-07T01:33:35.061Z,0.00
2018-05-07T01:34:35.078Z,0.00
2018-05-07T01:35:35.093Z,0.00
2018-05-07T01:36:35.106Z,0.00
2018-05-07T01:37:35.120Z,0.00
2018-05-07T01:38:35.136Z,0.00
2018-05-07T01:39:35.153Z,0.00
2018-05-07T01:40:35.167Z,0.00
2018-05-07T01:41:35.182Z,0.00
2018-05-07T01:42:35.199Z,0.00
2018-05-07T01:43:35.212Z,0.00
2018-05-07T01:44:35.226Z,0.00
2018-05-07T01:45:35.242Z,0.00
2018-05-07T01:46:35.259Z,0.00
2018-05-07T01:47:35.273Z,0.00
2018-05-07T01:48:35.288Z,0.00
2018-05-07T01:49:35.302Z,0.00
2018-05-07T01:50:35.318Z,0.00
2018-05-07T01:51:35.337Z,0.00
2018-05-07T01:52:35.347Z,0.00
2018-05-07T01:53:35.364Z,0.00
2018-05-07T01:54:35.378Z,0.00
2018-05-07T01:55:35.393Z,0.00
2018-05-07T01:56:35.408Z,0.00
2018-05-07T01:57:35.422Z,0.00
2018-05-07T01:58:35.439Z,0.00
2018-05-07T01:59:35.518Z,0.00
2018-05-07T02:00:35.468Z,0.00
2018-05-07T02:01:35.481Z,0.00
2018-05-07T02:02:35.499Z,0.00
2018-05-07T02:03:35.513Z,0.00
2018-05-07T02:04:35.525Z,0.00
2018-05-07T02:05:35.542Z,0.00
2018-05-07T02:06:35.558Z,0.00
2018-05-07T02:07:35.572Z,0.00
2018-05-07T02:08:35.586Z,0.00
2018-05-07T02:09:35.602Z,0.00
2018-05-07T02:10:35.616Z,0.00
2018-05-07T02:11:35.633Z,0.00
2018-05-07T02:12:35.646Z,0.00
2018-05-07T02:13:35.662Z,0.00
2018-05-07T02:14:35.676Z,0.00
2018-05-07T02:15:35.693Z,0.00
2018-05-07T02:16:35.706Z,0.00
2018-05-07T02:17:35.721Z,0.00
2018-05-07T02:18:35.736Z,0.00
2018-05-07T02:19:35.748Z,0.00
2018-05-07T02:20:35.769Z,0.00
2018-05-07T02:21:35.780Z,0.00
2018-05-07T02:22:35.793Z,0.00
2018-05-07T02:23:35.809Z,0.00
2018-05-07T02:24:35.824Z,0.00
2018-05-07T02:25:35.839Z,0.00
2018-05-07T02:26:35.854Z,0.00
2018-05-07T02:27:35.871Z,0.00
2018-05-07T02:28:35.887Z,0.00
2018-05-07T02:29:35.897Z,0.00
2018-05-07T02:30:35.913Z,0.00
2018-05-07T02:31:35.930Z,0.00
2018-05-07T02:32:35.941Z,0.00
2018-05-07T02:33:35.960Z,0.00
2018-05-07T02:34:35.971Z,0.00
2018-05-07T02:35:35.986Z,0.00
2018-05-07T02:36:36.002Z,0.00
2018-05-07T02:37:36.018Z,0.00
2018-05-07T02:38:36.031Z,0.00
2018-05-07T02:39:36.044Z,0.00
2018-05-07T02:40:36.059Z,0.00
2018-05-07T02:41:36.073Z,0.00
2018-05-07T02:42:36.089Z,0.00
2018-05-07T02:43:36.103Z,0.00
2018-05-07T02:44:36.115Z,0.00
2018-05-07T02:45:36.131Z,0.00
2018-05-07T02:46:36.145Z,0.00
2018-05-07T02:47:36.158Z,0.00
2018-05-07T02:48:36.173Z,0.00
2018-05-07T02:49:36.188Z,0.00
2018-05-07T02:50:36.202Z,0.00
2018-05-07T02:51:36.220Z,0.00
2018-05-07T02:52:36.232Z,0.00
2018-05-07T02:53:36.246Z,0.00
2018-05-07T02:54:36.261Z,0.00
2018-05-07T02:55:36.274Z,0.00
2018-05-07T02:56:36.287Z,0.00
2018-05-07T02:57:36.306Z,0.00
2018-05-07T02:58:36.321Z,0.00
2018-05-07T02:59:36.331Z,0.00
2018-05-07T03:00:36.345Z,0.00
2018-05-07T03:01:36.363Z,0.00
2018-05-07T03:02:36.375Z,0.00
2018-05-07T03:03:36.390Z,0.00
2018-05-07T03:04:36.402Z,0.00
2018-05-07T03:05:36.427Z,0.00
2018-05-07T03:06:36.431Z,0.00
2018-05-07T03:07:36.449Z,0.00
2018-05-07T03:08:36.461Z,0.00
2018-05-07T03:09:36.482Z,0.00
2018-05-07T03:10:36.490Z,0.00
2018-05-07T03:11:36.504Z,0.00
2018-05-07T03:12:36.516Z,0.00
2018-05-07T03:13:36.532Z,0.00
2018-05-07T03:14:36.555Z,0.00
2018-05-07T03:15:36.562Z,0.00
2018-05-07T03:16:36.576Z,0.00
2018-05-07T03:17:36.657Z,0.00
2018-05-07T03:18:36.604Z,0.00
2018-05-07T03:19:36.619Z,0.00
2018-05-07T03:20:36.632Z,0.00
2018-05-07T03:21:36.645Z,0.00
2018-05-07T03:22:36.659Z,0.00
2018-05-07T03:23:36.676Z,0.00
2018-05-07T03:24:36.689Z,0.00
2018-05-07T03:25:36.704Z,0.00
2018-05-07T03:26:36.720Z,0.00
2018-05-07T03:27:36.734Z,0.00
2018-05-07T03:28:36.744Z,0.00
2018-05-07T03:29:36.760Z,0.00
2018-05-07T03:30:36.774Z,0.00
2018-05-07T03:31:36.789Z,0.00
2018-05-07T03:32:36.801Z,0.00
2018-05-07T03:33:36.816Z,0.00
2018-05-07T03:34:36.830Z,0.00
2018-05-07T03:35:36.845Z,0.00
2018-05-07T03:36:36.860Z,0.00
2018-05-07T03:37:36.871Z,0.00
2018-05-07T03:38:36.892Z,0.00
2018-05-07T03:39:36.908Z,0.00
2018-05-07T03:40:37.017Z,0.00
2018-05-07T03:41:36.928Z,0.00
2018-05-07T03:42:36.942Z,0.00
2018-05-07T03:43:36.957Z,0.00
2018-05-07T03:44:36.970Z,0.00
2018-05-07T03:45:36.990Z,0.00
2018-05-07T03:46:37.000Z,0.00
2018-05-07T03:47:37.015Z,0.00
2018-05-07T03:48:37.098Z,4.00
2018-05-07T03:49:37.042Z,0.00
2018-05-07T03:50:37.058Z,0.00
2018-05-07T03:51:37.071Z,0.00
2018-05-07T03:52:37.086Z,0.00
2018-05-07T03:53:37.100Z,0.00
2018-05-07T03:54:37.121Z,4.00
2018-05-07T03:55:37.133Z,0.00
2018-05-07T03:56:37.142Z,4.00
2018-05-07T03:57:37.158Z,0.00
2018-05-07T03:58:37.170Z,4.00
2018-05-07T03:59:37.246Z,0.00
2018-05-07T04:00:37.199Z,4.00
2018-05-07T04:01:37.216Z,4.00
2018-05-07T04:02:37.227Z,0.00
2018-05-07T04:03:37.247Z,4.00
2018-05-07T04:04:37.256Z,4.00
2018-05-07T04:05:37.348Z,4.00
2018-05-07T04:06:37.285Z,4.00
2018-05-07T04:07:37.302Z,8.00
2018-05-07T04:08:37.314Z,8.00
2018-05-07T04:09:37.331Z,8.00
2018-05-07T04:10:37.343Z,8.00
2018-05-07T04:11:37.357Z,4.00
2018-05-07T04:12:37.370Z,8.00
2018-05-07T04:13:37.386Z,8.00
2018-05-07T04:14:37.401Z,8.00
2018-05-07T04:15:37.415Z,8.00
2018-05-07T04:16:37.427Z,12.00
2018-05-07T04:17:37.443Z,8.00
2018-05-07T04:18:37.458Z,12.00
2018-05-07T04:19:37.473Z,12.00
2018-05-07T04:20:37.486Z,12.00
2018-05-07T04:21:37.501Z,12.00
2018-05-07T04:22:37.515Z,12.00
2018-05-07T04:23:37.529Z,16.00
2018-05-07T04:24:37.543Z,12.00
2018-05-07T04:25:37.559Z,16.00
2018-05-07T04:26:37.576Z,16.00
2018-05-07T04:27:37.587Z,16.00
2018-05-07T04:28:37.602Z,16.00
2018-05-07T04:29:37.616Z,16.00
2018-05-07T04:30:37.631Z,16.00
2018-05-07T04:31:37.646Z,20.00
2018-05-07T04:32:37.660Z,20.00
2018-05-07T04:33:37.701Z,20.00
2018-05-07T04:34:37.688Z,20.00
2018-05-07T04:35:37.703Z,16.00
2018-05-07T04:36:37.718Z,20.00
2018-05-07T04:37:37.732Z,20.00
2018-05-07T04:38:37.747Z,20.00
2018-05-07T04:39:37.761Z,20.00
2018-05-07T04:40:37.774Z,20.00
2018-05-07T04:41:37.790Z,24.00
2018-05-07T04:42:37.805Z,20.00
2018-05-07T04:43:37.819Z,24.00
2018-05-07T04:44:37.833Z,24.00
2018-05-07T04:45:37.847Z,28.00
2018-05-07T04:46:37.862Z,28.00
2018-05-07T04:47:37.876Z,28.00
2018-05-07T04:48:37.891Z,32.00
2018-05-07T04:49:37.904Z,36.00
2018-05-07T04:50:37.918Z,36.00
2018-05-07T04:51:37.934Z,40.00
2018-05-07T04:52:37.947Z,44.00
2018-05-07T04:53:37.963Z,44.00
2018-05-07T04:54:37.979Z,44.00
2018-05-07T04:55:37.991Z,48.00
2018-05-07T04:56:38.010Z,48.00
2018-05-07T04:57:38.021Z,48.00
2018-05-07T04:58:38.040Z,52.00
2018-05-07T04:59:38.049Z,52.00
2018-05-07T05:00:38.064Z,56.00
2018-05-07T05:01:38.079Z,56.00
2018-05-07T05:02:38.092Z,52.00
2018-05-07T05:03:38.107Z,52.00
2018-05-07T05:04:38.121Z,52.00
2018-05-07T05:05:38.136Z,56.00
2018-05-07T05:06:38.150Z,56.00
2018-05-07T05:07:38.165Z,60.00
2018-05-07T05:08:38.179Z,64.00
2018-05-07T05:09:38.192Z,60.00
2018-05-07T05:10:38.209Z,60.00
2018-05-07T05:11:38.228Z,60.00
2018-05-07T05:12:38.237Z,60.00
2018-05-07T05:13:38.252Z,60.00
2018-05-07T05:14:38.266Z,60.00
2018-05-07T05:15:38.281Z,60.00
2018-05-07T05:16:38.296Z,60.00
2018-05-07T05:17:38.310Z,60.00
2018-05-07T05:18:38.324Z,60.00
2018-05-07T05:19:38.339Z,56.00
2018-05-07T05:20:38.356Z,60.00
2018-05-07T05:21:38.369Z,56.00
2018-05-07T05:22:38.384Z,56.00
2018-05-07T05:23:38.396Z,60.00
2018-05-07T05:24:38.412Z,60.00
2018-05-07T05:25:38.425Z,56.00
2018-05-07T05:26:38.441Z,56.00
2018-05-07T05:27:38.454Z,60.00
2018-05-07T05:28:38.468Z,60.00
2018-05-07T05:29:38.484Z,64.00
2018-05-07T05:30:38.500Z,64.00
2018-05-07T05:31:38.512Z,68.00
2018-05-07T05:32:38.527Z,68.00
2018-05-07T05:33:38.544Z,72.00
2018-05-07T05:34:38.558Z,72.00
2018-05-07T05:35:38.571Z,76.00
2018-05-07T05:36:38.586Z,76.00
2018-05-07T05:37:38.605Z,80.00
2018-05-07T05:38:38.615Z,84.00
2018-05-07T05:39:38.630Z,88.00
2018-05-07T05:40:38.645Z,92.00
2018-05-07T05:41:38.659Z,96.00
2018-05-07T05:42:38.677Z,100.00
2018-05-07T05:43:38.802Z,100.00
2018-05-07T05:44:38.706Z,108.00
2018-05-07T05:45:38.717Z,108.00
2018-05-07T05:46:38.738Z,112.00
2018-05-07T05:47:38.747Z,108.00
2018-05-07T05:48:38.760Z,112.00
2018-05-07T05:49:38.778Z,112.00
2018-05-07T05:50:38.791Z,116.00
2018-05-07T05:51:38.809Z,112.00
2018-05-07T05:52:38.819Z,112.00
2018-05-07T05:53:38.835Z,112.00
2018-05-07T05:54:38.851Z,116.00
2018-05-07T05:55:38.866Z,120.00
2018-05-07T05:56:38.880Z,128.00
2018-05-07T05:57:38.893Z,128.00
2018-05-07T05:58:38.908Z,128.00
2018-05-07T05:59:38.936Z,136.00
2018-05-07T06:00:38.937Z,136.00
2018-05-07T06:01:38.953Z,140.00
2018-05-07T06:02:38.969Z,144.00
2018-05-07T06:03:39.056Z,140.00
2018-05-07T06:04:38.999Z,144.00
2018-05-07T06:05:39.014Z,144.00
2018-05-07T06:06:39.029Z,144.00
2018-05-07T06:07:39.047Z,160.00
2018-05-07T06:08:39.058Z,152.00
2018-05-07T06:09:39.072Z,152.00
2018-05-07T06:10:39.087Z,156.00
2018-05-07T06:11:39.104Z,164.00
2018-05-07T06:12:39.128Z,164.00
2018-05-07T06:13:39.133Z,168.00
2018-05-07T06:14:39.211Z,172.00
2018-05-07T06:15:39.163Z,176.00
2018-05-07T06:16:39.177Z,192.00
2018-05-07T06:17:39.194Z,188.00
2018-05-07T06:18:39.207Z,180.00
2018-05-07T06:19:39.224Z,176.00
2018-05-07T06:20:39.237Z,176.00
2018-05-07T06:21:39.299Z,176.00
2018-05-07T06:22:39.267Z,176.00
2018-05-07T06:23:39.282Z,176.00
2018-05-07T06:24:39.296Z,176.00
2018-05-07T06:25:39.311Z,172.00
2018-05-07T06:26:39.330Z,172.00
2018-05-07T06:27:39.340Z,172.00
2018-05-07T06:28:39.363Z,176.00
2018-05-07T06:29:39.370Z,180.00
2018-05-07T06:30:39.387Z,180.00
2018-05-07T06:31:39.403Z,180.00
2018-05-07T06:32:39.415Z,180.00
2018-05-07T06:33:39.430Z,188.00
2018-05-07T06:34:39.447Z,200.00
2018-05-07T06:35:39.463Z,196.00
2018-05-07T06:36:39.475Z,180.00
2018-05-07T06:37:39.490Z,184.00
2018-05-07T06:38:39.503Z,184.00
2018-05-07T06:39:39.519Z,192.00
2018-05-07T06:40:39.535Z,212.00
2018-05-07T06:41:39.551Z,224.00
2018-05-07T06:42:39.566Z,220.00
2018-05-07T06:43:39.578Z,228.00
2018-05-07T06:44:39.595Z,236.00
2018-05-07T06:45:39.655Z,240.00
2018-05-07T06:46:39.627Z,248.00
2018-05-07T06:47:39.637Z,248.00
2018-05-07T06:48:39.656Z,248.00
2018-05-07T06:49:39.668Z,256.00
2018-05-07T06:50:39.683Z,252.00
2018-05-07T06:51:39.698Z,256.00
2018-05-07T06:52:39.713Z,260.00
2018-05-07T06:53:39.728Z,264.00
2018-05-07T06:54:39.743Z,268.00
2018-05-07T06:55:39.758Z,276.00
2018-05-07T06:56:39.775Z,268.00
2018-05-07T06:57:39.787Z,240.00
2018-05-07T06:58:39.803Z,236.00
2018-05-07T06:59:39.819Z,228.00
2018-05-07T07:00:39.833Z,224.00
2018-05-07T07:01:39.848Z,220.00
2018-05-07T07:02:40.056Z,228.00
2018-05-07T07:03:39.878Z,240.00
2018-05-07T07:04:39.892Z,248.00
2018-05-07T07:05:39.908Z,232.00
2018-05-07T07:06:39.924Z,256.00
2018-05-07T07:07:39.938Z,244.00
2018-05-07T07:08:40.166Z,252.00
2018-05-07T07:09:39.966Z,268.00
2018-05-07T07:10:39.984Z,272.00
2018-05-07T07:11:39.996Z,284.00
2018-05-07T07:12:40.013Z,272.00
2018-05-07T07:13:40.026Z,284.00
2018-05-07T07:14:40.041Z,312.00
2018-05-07T07:15:40.060Z,308.00
2018-05-07T07:16:40.072Z,308.00
2018-05-07T07:17:40.092Z,304.00
2018-05-07T07:18:40.102Z,300.00
2018-05-07T07:19:40.115Z,300.00
2018-05-07T07:20:40.129Z,292.00
2018-05-07T07:21:40.144Z,288.00
2018-05-07T07:22:40.159Z,288.00
2018-05-07T07:23:40.173Z,284.00
2018-05-07T07:24:40.189Z,288.00
2018-05-07T07:25:40.204Z,292.00
2018-05-07T07:26:40.221Z,304.00
2018-05-07T07:27:40.232Z,296.00
2018-05-07T07:28:40.250Z,292.00
2018-05-07T07:29:40.260Z,288.00
2018-05-07T07:30:40.275Z,292.00
2018-05-07T07:31:40.295Z,288.00
2018-05-07T07:32:40.306Z,300.00
2018-05-07T07:33:40.324Z,312.00
2018-05-07T07:34:40.336Z,316.00
2018-05-07T07:35:40.350Z,316.00
2018-05-07T07:36:40.364Z,312.00
2018-05-07T07:37:40.381Z,308.00
2018-05-07T07:38:40.396Z,308.00
2018-05-07T07:39:40.411Z,304.00
2018-05-07T07:40:40.424Z,300.00
2018-05-07T07:41:40.439Z,292.00
2018-05-07T07:42:40.454Z,284.00
2018-05-07T07:43:40.468Z,280.00
2018-05-07T07:44:40.482Z,276.00
2018-05-07T07:45:40.498Z,272.00
2018-05-07T07:46:40.514Z,272.00
2018-05-07T07:47:40.528Z,284.00
2018-05-07T07:48:40.543Z,264.00
2018-05-07T07:49:40.557Z,288.00
2018-05-07T07:50:40.573Z,256.00
2018-05-07T07:51:40.590Z,256.00
2018-05-07T07:52:40.607Z,240.00
2018-05-07T07:53:40.623Z,236.00
2018-05-07T07:54:40.633Z,232.00
2018-05-07T07:55:40.648Z,228.00
2018-05-07T07:56:40.663Z,228.00
2018-05-07T07:57:40.678Z,236.00
2018-05-07T07:58:40.694Z,240.00
2018-05-07T07:59:40.711Z,348.00
2018-05-07T08:00:40.723Z,288.00
2018-05-07T08:01:40.791Z,248.00
2018-05-07T08:02:40.756Z,248.00
2018-05-07T08:03:40.770Z,244.00
2018-05-07T08:04:40.782Z,248.00
2018-05-07T08:05:40.801Z,252.00
2018-05-07T08:06:40.813Z,276.00
2018-05-07T08:07:40.829Z,264.00
2018-05-07T08:08:40.854Z,276.00
2018-05-07T08:09:40.859Z,300.00
2018-05-07T08:10:40.875Z,348.00
2018-05-07T08:11:40.891Z,372.00
2018-05-07T08:12:40.904Z,392.00
2018-05-07T08:13:40.918Z,412.00
2018-05-07T08:14:40.937Z,420.00
2018-05-07T08:15:40.949Z,432.00
2018-05-07T08:16:40.979Z,432.00
2018-05-07T08:17:40.980Z,424.00
2018-05-07T08:18:41.001Z,400.00
2018-05-07T08:19:41.014Z,324.00
2018-05-07T08:20:41.031Z,404.00
2018-05-07T08:21:41.043Z,396.00
2018-05-07T08:22:41.057Z,396.00
2018-05-07T08:23:41.074Z,376.00
2018-05-07T08:24:41.112Z,364.00
2018-05-07T08:25:41.105Z,332.00
2018-05-07T08:26:41.118Z,260.00
2018-05-07T08:27:41.135Z,416.00
2018-05-07T08:28:41.149Z,420.00
2018-05-07T08:29:41.167Z,428.00
2018-05-07T08:30:41.180Z,432.00
2018-05-07T08:31:41.195Z,432.00
2018-05-07T08:32:41.211Z,428.00
2018-05-07T08:33:41.229Z,424.00
2018-05-07T08:34:41.242Z,424.00
2018-05-07T08:35:41.257Z,424.00
2018-05-07T08:36:41.345Z,392.00
2018-05-07T08:37:41.289Z,244.00
2018-05-07T08:38:41.303Z,440.00
2018-05-07T08:39:41.322Z,456.00
2018-05-07T08:40:41.336Z,464.00
2018-05-07T08:41:41.350Z,460.00
2018-05-07T08:42:41.367Z,464.00
2018-05-07T08:43:41.381Z,468.00
2018-05-07T08:44:41.398Z,472.00
2018-05-07T08:45:41.412Z,476.00
2018-05-07T08:46:41.430Z,484.00
2018-05-07T08:47:41.450Z,484.00
2018-05-07T08:48:41.460Z,488.00
2018-05-07T08:49:41.478Z,492.00
2018-05-07T08:50:41.494Z,504.00
2018-05-07T08:51:41.509Z,508.00
2018-05-07T08:52:41.625Z,516.00
2018-05-07T08:53:41.540Z,524.00
2018-05-07T08:54:41.557Z,524.00
2018-05-07T08:55:41.573Z,524.00
2018-05-07T08:56:41.590Z,536.00
2018-05-07T08:57:41.607Z,540.00
2018-05-07T08:58:41.622Z,544.00
2018-05-07T08:59:41.639Z,548.00
2018-05-07T09:00:41.653Z,552.00
2018-05-07T09:01:41.672Z,556.00
2018-05-07T09:02:41.687Z,244.00
2018-05-07T09:03:41.705Z,232.00
2018-05-07T09:04:41.720Z,232.00
2018-05-07T09:05:41.736Z,280.00
2018-05-07T09:06:41.751Z,264.00
2018-05-07T09:07:41.767Z,224.00
2018-05-07T09:08:41.783Z,216.00
2018-05-07T09:09:41.799Z,212.00
2018-05-07T09:10:41.817Z,212.00
2018-05-07T09:11:41.832Z,212.00
2018-05-07T09:12:41.847Z,216.00
2018-05-07T09:13:41.935Z,224.00
2018-05-07T09:14:41.878Z,240.00
2018-05-07T09:15:41.896Z,372.00
2018-05-07T09:16:41.911Z,632.00
2018-05-07T09:17:41.925Z,676.00
2018-05-07T09:18:41.942Z,684.00
2018-05-07T09:19:41.968Z,692.00
2018-05-07T09:20:41.973Z,696.00
2018-05-07T09:21:41.990Z,696.00
2018-05-07T09:22:42.008Z,704.00
2018-05-07T09:23:42.025Z,712.00
2018-05-07T09:24:42.064Z,720.00
2018-05-07T09:25:42.054Z,728.00
2018-05-07T09:26:42.071Z,748.00
2018-05-07T09:27:42.089Z,752.00
2018-05-07T09:28:42.104Z,772.00
2018-05-07T09:29:42.118Z,784.00
2018-05-07T09:30:42.137Z,792.00
2018-05-07T09:31:42.154Z,800.00
2018-05-07T09:32:42.166Z,804.00
2018-05-07T09:33:42.182Z,812.00
2018-05-07T09:34:42.202Z,816.00
2018-05-07T09:35:42.219Z,828.00
2018-05-07T09:36:42.231Z,836.00
2018-05-07T09:37:42.248Z,852.00
2018-05-07T09:38:42.270Z,860.00
2018-05-07T09:39:42.280Z,868.00
2018-05-07T09:40:42.303Z,872.00
2018-05-07T09:41:42.314Z,876.00
2018-05-07T09:42:42.329Z,888.00
2018-05-07T09:43:42.345Z,896.00
2018-05-07T09:44:42.365Z,908.00
2018-05-07T09:45:42.380Z,924.00
2018-05-07T09:46:42.397Z,936.00
2018-05-07T09:47:42.415Z,944.00
2018-05-07T09:48:42.431Z,960.00
2018-05-07T09:49:42.455Z,860.00
2018-05-07T09:50:42.465Z,988.00
2018-05-07T09:51:42.479Z,996.00
2018-05-07T09:52:42.497Z,1012.00
2018-05-07T09:53:42.513Z,1004.00
2018-05-07T09:54:42.532Z,1008.00
2018-05-07T09:55:42.618Z,992.00
2018-05-07T09:56:42.598Z,1004.00
2018-05-07T09:57:42.582Z,1008.00
2018-05-07T09:58:42.600Z,1012.00
2018-05-07T09:59:42.617Z,1020.00
2018-05-07T10:00:42.635Z,1024.00
2018-05-07T10:01:42.656Z,1036.00
2018-05-07T10:02:42.670Z,1040.00
2018-05-07T10:03:42.687Z,1044.00
2018-05-07T10:04:42.705Z,1048.00
2018-05-07T10:05:42.722Z,1048.00
2018-05-07T10:06:42.741Z,1052.00
2018-05-07T10:07:42.758Z,1068.00
2018-05-07T10:08:42.775Z,1084.00
2018-05-07T10:09:42.791Z,1100.00
2018-05-07T10:10:42.809Z,1108.00
2018-05-07T10:11:42.826Z,328.00
2018-05-07T10:12:42.849Z,1120.00
2018-05-07T10:13:42.862Z,1140.00
2018-05-07T10:14:42.880Z,580.00
2018-05-07T10:15:42.898Z,1160.00
2018-05-07T10:16:42.915Z,1148.00
2018-05-07T10:17:42.934Z,1144.00
2018-05-07T10:18:42.959Z,1160.00
2018-05-07T10:19:42.970Z,1168.00
2018-05-07T10:20:42.989Z,1176.00
2018-05-07T10:21:43.005Z,692.00
2018-05-07T10:22:43.027Z,276.00
2018-05-07T10:23:43.044Z,288.00
2018-05-07T10:24:43.058Z,932.00
2018-05-07T10:25:43.077Z,1180.00
2018-05-07T10:26:43.094Z,1184.00
2018-05-07T10:27:43.113Z,1188.00
2018-05-07T10:28:43.129Z,1188.00
2018-05-07T10:29:43.152Z,1192.00
2018-05-07T10:30:43.167Z,1200.00
2018-05-07T10:31:43.184Z,1208.00
2018-05-07T10:32:43.205Z,1216.00
2018-05-07T10:33:43.220Z,1224.00
2018-05-07T10:34:43.240Z,1232.00
2018-05-07T10:35:43.261Z,1240.00
2018-05-07T10:36:43.275Z,1244.00
2018-05-07T10:37:43.292Z,1240.00
2018-05-07T10:39:43.328Z,1252.00
2018-05-07T10:40:43.346Z,1256.00
2018-05-07T10:41:43.362Z,1256.00
2018-05-07T10:42:43.457Z,1264.00
2018-05-07T10:43:43.400Z,1268.00
2018-05-07T10:44:43.418Z,1272.00
2018-05-07T10:45:43.435Z,1284.00
2018-05-07T10:46:43.454Z,1288.00
2018-05-07T10:47:43.472Z,1296.00
2018-05-07T10:48:43.489Z,1304.00
2018-05-07T10:49:43.507Z,1312.00
2018-05-07T10:50:43.526Z,1316.00
2018-05-07T10:51:43.543Z,1368.00
2018-05-07T10:52:43.562Z,1348.00
2018-05-07T10:53:43.579Z,1356.00
2018-05-07T10:54:43.602Z,504.00
2018-05-07T10:55:43.623Z,1360.00
2018-05-07T10:56:43.635Z,688.00
2018-05-07T10:57:43.652Z,1416.00
2018-05-07T10:58:43.670Z,1356.00
2018-05-07T10:59:43.689Z,572.00
2018-05-07T11:00:43.708Z,904.00
2018-05-07T11:01:43.764Z,384.00
2018-05-07T11:02:43.742Z,396.00
2018-05-07T11:03:43.761Z,472.00
2018-05-07T11:04:43.780Z,1352.00
2018-05-07T11:05:43.796Z,1444.00
2018-05-07T11:06:43.815Z,728.00
2018-05-07T11:07:43.832Z,600.00
2018-05-07T11:08:43.852Z,1300.00
2018-05-07T11:09:43.869Z,1408.00
2018-05-07T11:10:43.885Z,1388.00
2018-05-07T11:11:43.904Z,1424.00
2018-05-07T11:12:43.929Z,1436.00
2018-05-07T11:13:43.939Z,1452.00
2018-05-07T11:14:43.957Z,1456.00
2018-05-07T11:15:43.975Z,1340.00
2018-05-07T11:16:43.993Z,1260.00
2018-05-07T11:17:44.017Z,1132.00
2018-05-07T11:18:44.030Z,880.00
2018-05-07T11:19:44.118Z,956.00
2018-05-07T11:20:44.065Z,1320.00
2018-05-07T11:21:44.086Z,1076.00
2018-05-07T11:22:44.103Z,1456.00
2018-05-07T11:23:44.120Z,1340.00
2018-05-07T11:24:44.137Z,608.00
2018-05-07T11:25:44.156Z,652.00
2018-05-07T11:26:44.175Z,624.00
2018-05-07T11:27:44.195Z,600.00
2018-05-07T11:28:44.214Z,768.00
2018-05-07T11:29:44.231Z,1608.00
2018-05-07T11:30:44.252Z,1596.00
2018-05-07T11:31:44.268Z,1608.00
2018-05-07T11:32:44.288Z,1476.00
2018-05-07T11:33:44.306Z,1528.00
2018-05-07T11:34:44.323Z,724.00
2018-05-07T11:35:44.340Z,1212.00
2018-05-07T11:36:44.362Z,840.00
2018-05-07T11:37:44.380Z,1368.00
2018-05-07T11:38:44.398Z,1612.00
2018-05-07T11:39:44.417Z,1228.00
2018-05-07T11:40:44.435Z,680.00
2018-05-07T11:41:44.455Z,764.00
2018-05-07T11:42:44.474Z,572.00
2018-05-07T11:43:44.492Z,548.00
2018-05-07T11:44:44.513Z,516.00
2018-05-07T11:45:44.529Z,500.00
2018-05-07T11:46:44.547Z,480.00
2018-05-07T11:47:44.589Z,448.00
2018-05-07T11:48:44.581Z,424.00
2018-05-07T11:49:44.603Z,400.00
2018-05-07T11:50:44.620Z,384.00
2018-05-07T11:51:44.639Z,364.00
2018-05-07T11:52:44.656Z,352.00
2018-05-07T11:53:44.675Z,340.00
2018-05-07T11:54:44.693Z,332.00
2018-05-07T11:55:44.711Z,320.00
2018-05-07T11:56:44.729Z,312.00
2018-05-07T11:57:44.753Z,300.00
2018-05-07T11:58:44.764Z,288.00
2018-05-07T11:59:44.785Z,276.00
2018-05-07T12:00:44.803Z,268.00
2018-05-07T12:01:44.825Z,256.00
2018-05-07T12:02:44.912Z,248.00
2018-05-07T12:03:44.857Z,244.00
2018-05-07T12:04:44.872Z,236.00
2018-05-07T12:05:44.892Z,236.00
2018-05-07T12:06:44.910Z,228.00
2018-05-07T12:07:44.927Z,224.00
2018-05-07T12:08:44.944Z,224.00
2018-05-07T12:09:44.963Z,216.00
2018-05-07T12:10:44.982Z,212.00
2018-05-07T12:11:44.998Z,212.00
2018-05-07T12:12:45.022Z,216.00
2018-05-07T12:13:45.035Z,212.00
2018-05-07T12:14:45.059Z,208.00
2018-05-07T12:15:45.170Z,204.00
2018-05-07T12:16:45.089Z,196.00
2018-05-07T12:17:45.105Z,192.00
2018-05-07T12:18:45.124Z,184.00
2018-05-07T12:19:45.143Z,180.00
2018-05-07T12:20:45.160Z,168.00
2018-05-07T12:21:45.175Z,164.00
2018-05-07T12:22:45.195Z,156.00
2018-05-07T12:23:45.213Z,148.00
2018-05-07T12:24:45.230Z,140.00
2018-05-07T12:25:45.246Z,136.00
2018-05-07T12:26:45.264Z,132.00
2018-05-07T12:27:45.288Z,128.00
2018-05-07T12:28:45.300Z,124.00
2018-05-07T12:29:45.321Z,124.00
2018-05-07T12:30:45.337Z,116.00
2018-05-07T12:31:45.443Z,116.00
2018-05-07T12:32:45.377Z,112.00
2018-05-07T12:33:45.390Z,112.00
2018-05-07T12:34:45.408Z,108.00
2018-05-07T12:35:45.425Z,112.00
2018-05-07T12:36:45.444Z,108.00
2018-05-07T12:37:45.521Z,104.00
2018-05-07T12:38:45.477Z,108.00
2018-05-07T12:39:45.498Z,104.00
2018-05-07T12:40:45.595Z,104.00
2018-05-07T12:41:45.532Z,100.00
2018-05-07T12:42:45.552Z,100.00
2018-05-07T12:43:45.567Z,100.00
2018-05-07T12:44:45.585Z,100.00
2018-05-07T12:45:45.602Z,96.00